sensor_id;sensor_type;location;lat;lon;timestamp;P1;durP1;ratioP1;P2;durP2;ratioP2
81912;SDS011;71377;50.698;7.164;2023-07-24T00:01:14;2.40;;;2.20;;
81912;SDS011;71377;50.698;7.164;2023-07-24T00:03:41;2.78;;;1.95;;
81912;SDS011;71377;50.698;7.164;2023-07-24T00:06:07;2.70;;;1.80;;
81912;SDS011;71377;50.698;7.164;2023-07-24T00:08:34;2.55;;;2.08;;
81912;SDS011;71377;50.698;7.164;2023-07-24T00:11:00;4.80;;;2.83;;
81912;SDS011;71377;50.698;7.164;2023-07-24T00:13:29;2.95;;;2.20;;
81912;SDS011;71377;50.698;7.164;2023-07-24T00:15:56;2.38;;;2.00;;
81912;SDS011;71377;50.698;7.164;2023-07-24T00:18:23;3.40;;;2.28;;
81912;SDS011;71377;50.698;7.164;2023-07-24T00:20:49;2.38;;;1.85;;
81912;SDS011;71377;50.698;7.164;2023-07-24T00:23:16;2.55;;;2.30;;
81912;SDS011;71377;50.698;7.164;2023-07-24T00:25:42;2.30;;;2.08;;
81912;SDS011;71377;50.698;7.164;2023-07-24T00:28:09;3.20;;;2.13;;
81912;SDS011;71377;50.698;7.164;2023-07-24T00:30:35;2.50;;;1.95;;
81912;SDS011;71377;50.698;7.164;2023-07-24T00:33:02;2.28;;;1.88;;
81912;SDS011;71377;50.698;7.164;2023-07-24T00:35:28;3.33;;;1.90;;
81912;SDS011;71377;50.698;7.164;2023-07-24T00:37:55;2.70;;;2.03;;
81912;SDS011;71377;50.698;7.164;2023-07-24T00:40:21;2.08;;;1.88;;
81912;SDS011;71377;50.698;7.164;2023-07-24T00:42:48;4.13;;;1.95;;
81912;SDS011;71377;50.698;7.164;2023-07-24T00:45:15;3.20;;;2.00;;
81912;SDS011;71377;50.698;7.164;2023-07-24T00:47:42;1.95;;;1.77;;
81912;SDS011;71377;50.698;7.164;2023-07-24T00:50:09;3.35;;;2.13;;
81912;SDS011;71377;50.698;7.164;2023-07-24T00:52:37;2.22;;;2.03;;
81912;SDS011;71377;50.698;7.164;2023-07-24T00:55:04;3.15;;;2.20;;
81912;SDS011;71377;50.698;7.164;2023-07-24T00:57:32;2.85;;;2.03;;
81912;SDS011;71377;50.698;7.164;2023-07-24T00:59:59;2.58;;;2.10;;
81912;SDS011;71377;50.698;7.164;2023-07-24T01:02:25;3.53;;;2.28;;
81912;SDS011;71377;50.698;7.164;2023-07-24T01:04:53;2.10;;;2.00;;
81912;SDS011;71377;50.698;7.164;2023-07-24T01:07:20;2.33;;;2.10;;
81912;SDS011;71377;50.698;7.164;2023-07-24T01:09:46;6.47;;;2.22;;
81912;SDS011;71377;50.698;7.164;2023-07-24T01:12:15;2.58;;;2.03;;
81912;SDS011;71377;50.698;7.164;2023-07-24T01:15:02;2.75;;;2.17;;
81912;SDS011;71377;50.698;7.164;2023-07-24T01:17:36;2.88;;;2.05;;
81912;SDS011;71377;50.698;7.164;2023-07-24T01:20:08;3.10;;;2.10;;
81912;SDS011;71377;50.698;7.164;2023-07-24T01:22:39;2.35;;;2.10;;
81912;SDS011;71377;50.698;7.164;2023-07-24T01:25:23;2.67;;;2.30;;
81912;SDS011;71377;50.698;7.164;2023-07-24T01:27:55;2.83;;;2.35;;
81912;SDS011;71377;50.698;7.164;2023-07-24T01:30:21;4.05;;;2.17;;
81912;SDS011;71377;50.698;7.164;2023-07-24T01:32:48;2.50;;;2.00;;
81912;SDS011;71377;50.698;7.164;2023-07-24T01:35:15;3.10;;;2.28;;
81912;SDS011;71377;50.698;7.164;2023-07-24T01:37:42;2.47;;;2.28;;
81912;SDS011;71377;50.698;7.164;2023-07-24T01:40:11;2.83;;;2.05;;
81912;SDS011;71377;50.698;7.164;2023-07-24T01:42:38;3.17;;;2.13;;
81912;SDS011;71377;50.698;7.164;2023-07-24T01:45:05;3.15;;;2.30;;
81912;SDS011;71377;50.698;7.164;2023-07-24T01:47:32;3.97;;;2.05;;
81912;SDS011;71377;50.698;7.164;2023-07-24T01:49:59;4.75;;;2.40;;
81912;SDS011;71377;50.698;7.164;2023-07-24T01:52:26;3.88;;;2.10;;
81912;SDS011;71377;50.698;7.164;2023-07-24T01:54:52;3.45;;;2.15;;
81912;SDS011;71377;50.698;7.164;2023-07-24T01:57:19;2.95;;;2.30;;
81912;SDS011;71377;50.698;7.164;2023-07-24T01:59:45;2.83;;;2.22;;
81912;SDS011;71377;50.698;7.164;2023-07-24T02:02:11;4.50;;;2.25;;
81912;SDS011;71377;50.698;7.164;2023-07-24T02:04:38;2.78;;;2.10;;
81912;SDS011;71377;50.698;7.164;2023-07-24T02:07:04;2.92;;;2.10;;
81912;SDS011;71377;50.698;7.164;2023-07-24T02:09:31;4.90;;;2.28;;
81912;SDS011;71377;50.698;7.164;2023-07-24T02:11:57;2.45;;;2.08;;
81912;SDS011;71377;50.698;7.164;2023-07-24T02:14:24;2.50;;;2.17;;
81912;SDS011;71377;50.698;7.164;2023-07-24T02:16:50;3.50;;;2.50;;
81912;SDS011;71377;50.698;7.164;2023-07-24T02:19:17;2.60;;;2.30;;
81912;SDS011;71377;50.698;7.164;2023-07-24T02:21:43;3.83;;;2.10;;
81912;SDS011;71377;50.698;7.164;2023-07-24T02:24:09;2.30;;;2.10;;
81912;SDS011;71377;50.698;7.164;2023-07-24T02:26:36;2.22;;;2.03;;
81912;SDS011;71377;50.698;7.164;2023-07-24T02:29:02;3.53;;;2.47;;
81912;SDS011;71377;50.698;7.164;2023-07-24T02:31:29;3.42;;;2.20;;
81912;SDS011;71377;50.698;7.164;2023-07-24T02:33:55;4.53;;;2.35;;
81912;SDS011;71377;50.698;7.164;2023-07-24T02:36:22;2.28;;;2.00;;
81912;SDS011;71377;50.698;7.164;2023-07-24T02:38:48;4.60;;;2.47;;
81912;SDS011;71377;50.698;7.164;2023-07-24T02:41:15;4.55;;;2.05;;
81912;SDS011;71377;50.698;7.164;2023-07-24T02:43:41;3.17;;;2.80;;
81912;SDS011;71377;50.698;7.164;2023-07-24T02:46:08;3.35;;;2.60;;
81912;SDS011;71377;50.698;7.164;2023-07-24T02:48:34;2.50;;;2.17;;
81912;SDS011;71377;50.698;7.164;2023-07-24T02:51:01;3.53;;;2.65;;
81912;SDS011;71377;50.698;7.164;2023-07-24T02:53:27;3.25;;;2.38;;
81912;SDS011;71377;50.698;7.164;2023-07-24T02:55:54;3.85;;;2.40;;
81912;SDS011;71377;50.698;7.164;2023-07-24T02:58:20;4.00;;;2.60;;
81912;SDS011;71377;50.698;7.164;2023-07-24T03:00:47;2.53;;;2.03;;
81912;SDS011;71377;50.698;7.164;2023-07-24T03:03:14;3.13;;;2.47;;
81912;SDS011;71377;50.698;7.164;2023-07-24T03:05:40;4.07;;;2.30;;
81912;SDS011;71377;50.698;7.164;2023-07-24T03:08:07;4.60;;;2.30;;
81912;SDS011;71377;50.698;7.164;2023-07-24T03:10:33;3.25;;;2.60;;
81912;SDS011;71377;50.698;7.164;2023-07-24T03:12:59;3.80;;;2.50;;
81912;SDS011;71377;50.698;7.164;2023-07-24T03:15:26;3.67;;;2.55;;
81912;SDS011;71377;50.698;7.164;2023-07-24T03:17:52;2.72;;;2.40;;
81912;SDS011;71377;50.698;7.164;2023-07-24T03:20:19;3.38;;;2.70;;
81912;SDS011;71377;50.698;7.164;2023-07-24T03:22:46;3.75;;;2.50;;
81912;SDS011;71377;50.698;7.164;2023-07-24T03:25:13;4.55;;;2.58;;
81912;SDS011;71377;50.698;7.164;2023-07-24T03:27:39;4.25;;;2.75;;
81912;SDS011;71377;50.698;7.164;2023-07-24T03:30:06;2.95;;;2.60;;
81912;SDS011;71377;50.698;7.164;2023-07-24T03:32:33;4.53;;;2.58;;
81912;SDS011;71377;50.698;7.164;2023-07-24T03:35:00;2.80;;;2.38;;
81912;SDS011;71377;50.698;7.164;2023-07-24T03:37:26;3.72;;;2.65;;
81912;SDS011;71377;50.698;7.164;2023-07-24T03:39:52;4.80;;;2.78;;
81912;SDS011;71377;50.698;7.164;2023-07-24T03:42:26;3.30;;;2.75;;
81912;SDS011;71377;50.698;7.164;2023-07-24T03:44:54;4.68;;;2.47;;
81912;SDS011;71377;50.698;7.164;2023-07-24T03:47:21;4.03;;;2.65;;
81912;SDS011;71377;50.698;7.164;2023-07-24T03:49:48;4.75;;;2.80;;
81912;SDS011;71377;50.698;7.164;2023-07-24T03:52:14;4.30;;;2.70;;
81912;SDS011;71377;50.698;7.164;2023-07-24T03:54:41;3.53;;;2.50;;
81912;SDS011;71377;50.698;7.164;2023-07-24T03:57:07;3.45;;;2.55;;
81912;SDS011;71377;50.698;7.164;2023-07-24T03:59:34;4.72;;;2.80;;
81912;SDS011;71377;50.698;7.164;2023-07-24T04:02:00;4.07;;;2.60;;
81912;SDS011;71377;50.698;7.164;2023-07-24T04:04:27;3.90;;;2.88;;
81912;SDS011;71377;50.698;7.164;2023-07-24T04:06:54;3.55;;;2.47;;
81912;SDS011;71377;50.698;7.164;2023-07-24T04:09:20;3.50;;;2.80;;
81912;SDS011;71377;50.698;7.164;2023-07-24T04:11:46;4.10;;;2.70;;
81912;SDS011;71377;50.698;7.164;2023-07-24T04:14:13;5.47;;;3.10;;
81912;SDS011;71377;50.698;7.164;2023-07-24T04:16:39;4.57;;;2.67;;
81912;SDS011;71377;50.698;7.164;2023-07-24T04:19:06;4.07;;;2.92;;
81912;SDS011;71377;50.698;7.164;2023-07-24T04:21:33;3.40;;;2.55;;
81912;SDS011;71377;50.698;7.164;2023-07-24T04:23:59;3.42;;;2.60;;
81912;SDS011;71377;50.698;7.164;2023-07-24T04:26:26;4.10;;;2.75;;
81912;SDS011;71377;50.698;7.164;2023-07-24T04:28:52;5.03;;;2.80;;
81912;SDS011;71377;50.698;7.164;2023-07-24T04:31:19;3.50;;;2.90;;
81912;SDS011;71377;50.698;7.164;2023-07-24T04:33:46;3.22;;;2.92;;
81912;SDS011;71377;50.698;7.164;2023-07-24T04:36:13;4.95;;;3.13;;
81912;SDS011;71377;50.698;7.164;2023-07-24T04:38:43;4.18;;;3.17;;
81912;SDS011;71377;50.698;7.164;2023-07-24T04:41:10;4.45;;;2.83;;
81912;SDS011;71377;50.698;7.164;2023-07-24T04:43:36;3.28;;;2.90;;
81912;SDS011;71377;50.698;7.164;2023-07-24T04:46:02;5.68;;;2.90;;
81912;SDS011;71377;50.698;7.164;2023-07-24T04:48:29;5.55;;;3.30;;
81912;SDS011;71377;50.698;7.164;2023-07-24T04:50:56;5.85;;;3.15;;
81912;SDS011;71377;50.698;7.164;2023-07-24T04:53:23;5.90;;;2.72;;
81912;SDS011;71377;50.698;7.164;2023-07-24T04:55:49;2.85;;;2.53;;
81912;SDS011;71377;50.698;7.164;2023-07-24T04:58:16;3.28;;;2.70;;
81912;SDS011;71377;50.698;7.164;2023-07-24T05:00:44;4.05;;;2.80;;
81912;SDS011;71377;50.698;7.164;2023-07-24T05:03:10;3.40;;;3.10;;
81912;SDS011;71377;50.698;7.164;2023-07-24T05:05:37;3.92;;;3.00;;
81912;SDS011;71377;50.698;7.164;2023-07-24T05:08:08;5.47;;;2.90;;
81912;SDS011;71377;50.698;7.164;2023-07-24T05:10:35;4.45;;;2.80;;
81912;SDS011;71377;50.698;7.164;2023-07-24T05:13:02;5.28;;;3.20;;
81912;SDS011;71377;50.698;7.164;2023-07-24T05:15:29;4.68;;;3.20;;
81912;SDS011;71377;50.698;7.164;2023-07-24T05:17:56;4.95;;;3.30;;
81912;SDS011;71377;50.698;7.164;2023-07-24T05:20:22;3.92;;;3.25;;
81912;SDS011;71377;50.698;7.164;2023-07-24T05:22:48;3.63;;;2.80;;
81912;SDS011;71377;50.698;7.164;2023-07-24T05:25:15;4.35;;;3.30;;
81912;SDS011;71377;50.698;7.164;2023-07-24T05:27:41;3.45;;;2.80;;
81912;SDS011;71377;50.698;7.164;2023-07-24T05:30:11;5.70;;;3.17;;
81912;SDS011;71377;50.698;7.164;2023-07-24T05:32:37;4.90;;;3.30;;
81912;SDS011;71377;50.698;7.164;2023-07-24T05:35:04;5.70;;;3.03;;
81912;SDS011;71377;50.698;7.164;2023-07-24T05:37:31;3.55;;;2.75;;
81912;SDS011;71377;50.698;7.164;2023-07-24T05:39:57;3.78;;;3.30;;
81912;SDS011;71377;50.698;7.164;2023-07-24T05:42:24;4.20;;;3.08;;
81912;SDS011;71377;50.698;7.164;2023-07-24T05:44:50;5.00;;;3.05;;
81912;SDS011;71377;50.698;7.164;2023-07-24T05:47:17;4.28;;;3.08;;
81912;SDS011;71377;50.698;7.164;2023-07-24T05:49:43;6.05;;;3.50;;
81912;SDS011;71377;50.698;7.164;2023-07-24T05:52:10;5.95;;;3.30;;
81912;SDS011;71377;50.698;7.164;2023-07-24T05:54:37;5.47;;;3.05;;
81912;SDS011;71377;50.698;7.164;2023-07-24T05:57:05;5.13;;;3.38;;
81912;SDS011;71377;50.698;7.164;2023-07-24T05:59:32;6.82;;;3.00;;
81912;SDS011;71377;50.698;7.164;2023-07-24T06:01:58;5.28;;;3.45;;
81912;SDS011;71377;50.698;7.164;2023-07-24T06:04:24;4.75;;;3.47;;
81912;SDS011;71377;50.698;7.164;2023-07-24T06:06:51;6.30;;;3.65;;
81912;SDS011;71377;50.698;7.164;2023-07-24T06:09:17;7.22;;;3.25;;
81912;SDS011;71377;50.698;7.164;2023-07-24T06:11:47;6.13;;;3.50;;
81912;SDS011;71377;50.698;7.164;2023-07-24T06:14:13;4.90;;;3.35;;
81912;SDS011;71377;50.698;7.164;2023-07-24T06:16:40;5.85;;;3.50;;
81912;SDS011;71377;50.698;7.164;2023-07-24T06:19:06;6.05;;;3.38;;
81912;SDS011;71377;50.698;7.164;2023-07-24T06:21:33;4.60;;;3.45;;
81912;SDS011;71377;50.698;7.164;2023-07-24T06:23:59;4.88;;;3.05;;
81912;SDS011;71377;50.698;7.164;2023-07-24T06:26:26;3.88;;;3.17;;
81912;SDS011;71377;50.698;7.164;2023-07-24T06:28:53;4.68;;;3.42;;
81912;SDS011;71377;50.698;7.164;2023-07-24T06:31:19;5.88;;;4.00;;
81912;SDS011;71377;50.698;7.164;2023-07-24T06:33:48;5.45;;;3.40;;
81912;SDS011;71377;50.698;7.164;2023-07-24T06:36:14;6.53;;;3.42;;
81912;SDS011;71377;50.698;7.164;2023-07-24T06:38:41;6.30;;;3.40;;
81912;SDS011;71377;50.698;7.164;2023-07-24T06:41:08;3.80;;;3.13;;
81912;SDS011;71377;50.698;7.164;2023-07-24T06:43:37;3.97;;;2.97;;
81912;SDS011;71377;50.698;7.164;2023-07-24T06:46:04;13.82;;;3.22;;
81912;SDS011;71377;50.698;7.164;2023-07-24T06:48:30;7.40;;;3.47;;
81912;SDS011;71377;50.698;7.164;2023-07-24T06:50:57;4.90;;;3.50;;
81912;SDS011;71377;50.698;7.164;2023-07-24T06:53:23;5.88;;;3.33;;
81912;SDS011;71377;50.698;7.164;2023-07-24T06:55:50;4.80;;;3.20;;
81912;SDS011;71377;50.698;7.164;2023-07-24T06:58:17;4.45;;;3.38;;
81912;SDS011;71377;50.698;7.164;2023-07-24T07:00:43;4.80;;;3.15;;
81912;SDS011;71377;50.698;7.164;2023-07-24T07:03:10;4.68;;;3.30;;
81912;SDS011;71377;50.698;7.164;2023-07-24T07:05:37;5.45;;;3.42;;
81912;SDS011;71377;50.698;7.164;2023-07-24T07:08:03;4.30;;;3.40;;
81912;SDS011;71377;50.698;7.164;2023-07-24T07:10:33;5.30;;;3.40;;
81912;SDS011;71377;50.698;7.164;2023-07-24T07:13:01;5.35;;;3.20;;
81912;SDS011;71377;50.698;7.164;2023-07-24T07:15:27;4.75;;;2.80;;
81912;SDS011;71377;50.698;7.164;2023-07-24T07:17:54;5.13;;;3.17;;
81912;SDS011;71377;50.698;7.164;2023-07-24T07:20:20;5.50;;;2.90;;
81912;SDS011;71377;50.698;7.164;2023-07-24T07:22:47;7.35;;;2.88;;
81912;SDS011;71377;50.698;7.164;2023-07-24T07:25:14;4.75;;;3.20;;
81912;SDS011;71377;50.698;7.164;2023-07-24T07:27:40;6.50;;;2.67;;
81912;SDS011;71377;50.698;7.164;2023-07-24T07:30:06;3.63;;;2.90;;
81912;SDS011;71377;50.698;7.164;2023-07-24T07:32:33;3.17;;;2.83;;
81912;SDS011;71377;50.698;7.164;2023-07-24T07:35:00;4.13;;;2.88;;
81912;SDS011;71377;50.698;7.164;2023-07-24T07:37:26;4.63;;;2.80;;
81912;SDS011;71377;50.698;7.164;2023-07-24T07:39:53;4.13;;;2.70;;
81912;SDS011;71377;50.698;7.164;2023-07-24T07:42:19;4.63;;;2.90;;
81912;SDS011;71377;50.698;7.164;2023-07-24T07:44:46;4.70;;;3.22;;
81912;SDS011;71377;50.698;7.164;2023-07-24T07:47:12;5.45;;;2.92;;
81912;SDS011;71377;50.698;7.164;2023-07-24T07:49:39;4.05;;;2.90;;
81912;SDS011;71377;50.698;7.164;2023-07-24T07:52:07;3.83;;;3.13;;
81912;SDS011;71377;50.698;7.164;2023-07-24T07:54:34;4.72;;;2.92;;
81912;SDS011;71377;50.698;7.164;2023-07-24T07:57:00;4.50;;;3.10;;
81912;SDS011;71377;50.698;7.164;2023-07-24T07:59:27;4.85;;;3.20;;
81912;SDS011;71377;50.698;7.164;2023-07-24T08:01:53;3.75;;;3.05;;
81912;SDS011;71377;50.698;7.164;2023-07-24T08:04:20;4.25;;;3.00;;
81912;SDS011;71377;50.698;7.164;2023-07-24T08:06:46;4.00;;;2.80;;
81912;SDS011;71377;50.698;7.164;2023-07-24T08:09:13;5.28;;;3.08;;
81912;SDS011;71377;50.698;7.164;2023-07-24T08:11:40;5.82;;;2.72;;
81912;SDS011;71377;50.698;7.164;2023-07-24T08:14:06;5.85;;;3.00;;
81912;SDS011;71377;50.698;7.164;2023-07-24T08:16:33;4.10;;;2.45;;
81912;SDS011;71377;50.698;7.164;2023-07-24T08:19:00;4.15;;;2.80;;
81912;SDS011;71377;50.698;7.164;2023-07-24T08:21:27;4.22;;;2.55;;
81912;SDS011;71377;50.698;7.164;2023-07-24T08:23:53;3.03;;;2.50;;
81912;SDS011;71377;50.698;7.164;2023-07-24T08:26:20;2.80;;;2.50;;
81912;SDS011;71377;50.698;7.164;2023-07-24T08:28:47;2.97;;;2.50;;
81912;SDS011;71377;50.698;7.164;2023-07-24T08:31:13;3.75;;;2.55;;
81912;SDS011;71377;50.698;7.164;2023-07-24T08:33:39;3.42;;;2.63;;
81912;SDS011;71377;50.698;7.164;2023-07-24T08:36:07;3.30;;;2.40;;
81912;SDS011;71377;50.698;7.164;2023-07-24T08:38:34;4.40;;;2.30;;
81912;SDS011;71377;50.698;7.164;2023-07-24T08:41:02;5.53;;;2.53;;
81912;SDS011;71377;50.698;7.164;2023-07-24T08:43:29;2.90;;;2.53;;
81912;SDS011;71377;50.698;7.164;2023-07-24T08:45:57;3.38;;;2.22;;
81912;SDS011;71377;50.698;7.164;2023-07-24T08:48:29;3.58;;;2.58;;
81912;SDS011;71377;50.698;7.164;2023-07-24T08:50:57;3.03;;;2.30;;
81912;SDS011;71377;50.698;7.164;2023-07-24T08:53:25;3.05;;;2.22;;
81912;SDS011;71377;50.698;7.164;2023-07-24T08:55:54;2.40;;;2.20;;
81912;SDS011;71377;50.698;7.164;2023-07-24T08:58:22;3.35;;;2.30;;
81912;SDS011;71377;50.698;7.164;2023-07-24T09:00:48;3.45;;;2.40;;
81912;SDS011;71377;50.698;7.164;2023-07-24T09:03:18;4.07;;;2.28;;
81912;SDS011;71377;50.698;7.164;2023-07-24T09:05:45;2.50;;;1.90;;
81912;SDS011;71377;50.698;7.164;2023-07-24T09:08:13;5.68;;;2.05;;
81912;SDS011;71377;50.698;7.164;2023-07-24T09:10:40;2.20;;;1.70;;
81912;SDS011;71377;50.698;7.164;2023-07-24T09:13:07;2.65;;;1.83;;
81912;SDS011;71377;50.698;7.164;2023-07-24T09:15:40;4.88;;;2.42;;
81912;SDS011;71377;50.698;7.164;2023-07-24T09:18:10;3.10;;;2.10;;
81912;SDS011;71377;50.698;7.164;2023-07-24T09:20:42;2.70;;;1.90;;
81912;SDS011;71377;50.698;7.164;2023-07-24T09:23:10;5.05;;;2.00;;
81912;SDS011;71377;50.698;7.164;2023-07-24T09:25:44;3.22;;;1.85;;
81912;SDS011;71377;50.698;7.164;2023-07-24T09:28:15;2.55;;;2.00;;
81912;SDS011;71377;50.698;7.164;2023-07-24T09:30:57;2.92;;;2.05;;
81912;SDS011;71377;50.698;7.164;2023-07-24T09:33:39;2.85;;;2.00;;
81912;SDS011;71377;50.698;7.164;2023-07-24T09:36:08;3.05;;;1.90;;
81912;SDS011;71377;50.698;7.164;2023-07-24T09:38:39;3.15;;;2.28;;
81912;SDS011;71377;50.698;7.164;2023-07-24T09:41:08;2.65;;;2.10;;
81912;SDS011;71377;50.698;7.164;2023-07-24T09:43:38;2.58;;;1.98;;
81912;SDS011;71377;50.698;7.164;2023-07-24T09:46:07;2.22;;;2.03;;
81912;SDS011;71377;50.698;7.164;2023-07-24T09:48:35;5.45;;;2.40;;
81912;SDS011;71377;50.698;7.164;2023-07-24T09:51:05;3.55;;;1.88;;
81912;SDS011;71377;50.698;7.164;2023-07-24T09:53:38;2.72;;;2.05;;
81912;SDS011;71377;50.698;7.164;2023-07-24T09:56:10;2.33;;;1.92;;
81912;SDS011;71377;50.698;7.164;2023-07-24T09:58:37;2.00;;;1.77;;
81912;SDS011;71377;50.698;7.164;2023-07-24T10:01:05;2.92;;;2.00;;
81912;SDS011;71377;50.698;7.164;2023-07-24T10:03:35;3.30;;;1.67;;
81912;SDS011;71377;50.698;7.164;2023-07-24T10:06:08;2.83;;;1.80;;
81912;SDS011;71377;50.698;7.164;2023-07-24T10:08:39;3.20;;;2.00;;
81912;SDS011;71377;50.698;7.164;2023-07-24T10:11:08;2.10;;;1.90;;
81912;SDS011;71377;50.698;7.164;2023-07-24T10:13:37;3.08;;;1.73;;
81912;SDS011;71377;50.698;7.164;2023-07-24T10:16:04;2.38;;;2.10;;
81912;SDS011;71377;50.698;7.164;2023-07-24T10:18:41;2.28;;;1.95;;
81912;SDS011;71377;50.698;7.164;2023-07-24T10:21:11;2.95;;;2.10;;
81912;SDS011;71377;50.698;7.164;2023-07-24T10:23:42;2.95;;;1.80;;
81912;SDS011;71377;50.698;7.164;2023-07-24T10:26:12;2.53;;;2.03;;
81912;SDS011;71377;50.698;7.164;2023-07-24T10:28:41;4.28;;;2.17;;
81912;SDS011;71377;50.698;7.164;2023-07-24T10:31:21;2.97;;;2.15;;
81912;SDS011;71377;50.698;7.164;2023-07-24T10:33:50;2.30;;;1.75;;
81912;SDS011;71377;50.698;7.164;2023-07-24T10:36:18;4.20;;;2.15;;
81912;SDS011;71377;50.698;7.164;2023-07-24T10:38:46;2.92;;;1.85;;
81912;SDS011;71377;50.698;7.164;2023-07-24T10:41:17;3.90;;;2.15;;
81912;SDS011;71377;50.698;7.164;2023-07-24T10:43:45;2.72;;;2.22;;
81912;SDS011;71377;50.698;7.164;2023-07-24T10:46:17;5.03;;;2.28;;
81912;SDS011;71377;50.698;7.164;2023-07-24T10:48:49;2.33;;;2.08;;
81912;SDS011;71377;50.698;7.164;2023-07-24T10:51:17;2.92;;;2.10;;
81912;SDS011;71377;50.698;7.164;2023-07-24T10:53:45;2.78;;;2.03;;
81912;SDS011;71377;50.698;7.164;2023-07-24T10:56:15;3.45;;;2.35;;
81912;SDS011;71377;50.698;7.164;2023-07-24T10:58:42;2.60;;;2.28;;
81912;SDS011;71377;50.698;7.164;2023-07-24T11:01:09;3.53;;;2.05;;
81912;SDS011;71377;50.698;7.164;2023-07-24T11:03:41;4.80;;;2.28;;
81912;SDS011;71377;50.698;7.164;2023-07-24T11:06:14;3.28;;;2.08;;
81912;SDS011;71377;50.698;7.164;2023-07-24T11:08:50;3.47;;;2.42;;
81912;SDS011;71377;50.698;7.164;2023-07-24T11:11:18;3.13;;;2.40;;
81912;SDS011;71377;50.698;7.164;2023-07-24T11:13:44;3.00;;;2.40;;
81912;SDS011;71377;50.698;7.164;2023-07-24T11:16:11;3.40;;;2.20;;
81912;SDS011;71377;50.698;7.164;2023-07-24T11:18:44;6.72;;;1.90;;
81912;SDS011;71377;50.698;7.164;2023-07-24T11:21:20;4.15;;;1.98;;
81912;SDS011;71377;50.698;7.164;2023-07-24T11:23:50;3.03;;;2.30;;
81912;SDS011;71377;50.698;7.164;2023-07-24T11:26:18;2.15;;;1.95;;
81912;SDS011;71377;50.698;7.164;2023-07-24T11:28:47;2.83;;;1.88;;
81912;SDS011;71377;50.698;7.164;2023-07-24T11:31:13;3.35;;;2.30;;
81912;SDS011;71377;50.698;7.164;2023-07-24T11:33:41;3.03;;;2.33;;
81912;SDS011;71377;50.698;7.164;2023-07-24T11:36:09;4.85;;;2.20;;
81912;SDS011;71377;50.698;7.164;2023-07-24T11:38:36;3.95;;;2.15;;
81912;SDS011;71377;50.698;7.164;2023-07-24T11:41:05;3.22;;;2.05;;
81912;SDS011;71377;50.698;7.164;2023-07-24T11:43:31;5.53;;;2.50;;
81912;SDS011;71377;50.698;7.164;2023-07-24T11:45:58;3.53;;;2.25;;
81912;SDS011;71377;50.698;7.164;2023-07-24T11:48:24;3.20;;;2.28;;
81912;SDS011;71377;50.698;7.164;2023-07-24T11:50:52;2.65;;;2.30;;
81912;SDS011;71377;50.698;7.164;2023-07-24T11:53:25;2.47;;;2.10;;
81912;SDS011;71377;50.698;7.164;2023-07-24T11:55:58;2.53;;;2.33;;
81912;SDS011;71377;50.698;7.164;2023-07-24T11:58:25;3.28;;;2.13;;
81912;SDS011;71377;50.698;7.164;2023-07-24T12:00:53;3.40;;;2.20;;
81912;SDS011;71377;50.698;7.164;2023-07-24T12:03:23;3.30;;;1.75;;
81912;SDS011;71377;50.698;7.164;2023-07-24T12:05:51;3.00;;;2.00;;
81912;SDS011;71377;50.698;7.164;2023-07-24T12:08:19;3.42;;;1.85;;
81912;SDS011;71377;50.698;7.164;2023-07-24T12:10:50;1.98;;;1.77;;
81912;SDS011;71377;50.698;7.164;2023-07-24T12:13:16;2.30;;;1.88;;
81912;SDS011;71377;50.698;7.164;2023-07-24T12:15:46;2.33;;;1.77;;
81912;SDS011;71377;50.698;7.164;2023-07-24T12:18:14;3.97;;;2.22;;
81912;SDS011;71377;50.698;7.164;2023-07-24T12:20:41;2.85;;;2.00;;
81912;SDS011;71377;50.698;7.164;2023-07-24T12:23:07;3.90;;;2.10;;
81912;SDS011;71377;50.698;7.164;2023-07-24T12:25:34;3.35;;;2.00;;
81912;SDS011;71377;50.698;7.164;2023-07-24T12:28:00;4.80;;;2.17;;
81912;SDS011;71377;50.698;7.164;2023-07-24T12:30:27;3.53;;;2.30;;
81912;SDS011;71377;50.698;7.164;2023-07-24T12:32:54;3.15;;;2.20;;
81912;SDS011;71377;50.698;7.164;2023-07-24T12:35:20;2.85;;;2.30;;
81912;SDS011;71377;50.698;7.164;2023-07-24T12:37:48;5.57;;;2.50;;
81912;SDS011;71377;50.698;7.164;2023-07-24T12:40:14;3.70;;;2.10;;
81912;SDS011;71377;50.698;7.164;2023-07-24T12:42:41;14.98;;;2.50;;
81912;SDS011;71377;50.698;7.164;2023-07-24T12:45:08;3.13;;;1.38;;
81912;SDS011;71377;50.698;7.164;2023-07-24T12:47:35;4.65;;;1.40;;
81912;SDS011;71377;50.698;7.164;2023-07-24T12:50:01;1.50;;;1.40;;
81912;SDS011;71377;50.698;7.164;2023-07-24T12:52:33;2.55;;;1.23;;
81912;SDS011;71377;50.698;7.164;2023-07-24T12:54:59;1.40;;;1.30;;
81912;SDS011;71377;50.698;7.164;2023-07-24T12:57:28;2.10;;;1.40;;
81912;SDS011;71377;50.698;7.164;2023-07-24T12:59:55;3.33;;;1.50;;
81912;SDS011;71377;50.698;7.164;2023-07-24T13:02:21;1.40;;;1.30;;
81912;SDS011;71377;50.698;7.164;2023-07-24T13:04:48;1.98;;;1.30;;
81912;SDS011;71377;50.698;7.164;2023-07-24T13:07:14;4.03;;;1.38;;
81912;SDS011;71377;50.698;7.164;2023-07-24T13:09:41;1.42;;;1.27;;
81912;SDS011;71377;50.698;7.164;2023-07-24T13:12:08;1.88;;;1.30;;
81912;SDS011;71377;50.698;7.164;2023-07-24T13:14:34;2.97;;;1.30;;
81912;SDS011;71377;50.698;7.164;2023-07-24T13:17:04;2.42;;;1.40;;
81912;SDS011;71377;50.698;7.164;2023-07-24T13:19:30;1.27;;;1.10;;
81912;SDS011;71377;50.698;7.164;2023-07-24T13:21:57;1.33;;;1.00;;
81912;SDS011;71377;50.698;7.164;2023-07-24T13:24:24;3.35;;;0.90;;
81912;SDS011;71377;50.698;7.164;2023-07-24T13:26:50;1.20;;;0.98;;
81912;SDS011;71377;50.698;7.164;2023-07-24T13:29:17;0.85;;;0.85;;
81912;SDS011;71377;50.698;7.164;2023-07-24T13:31:43;3.05;;;1.00;;
81912;SDS011;71377;50.698;7.164;2023-07-24T13:34:10;1.63;;;1.13;;
81912;SDS011;71377;50.698;7.164;2023-07-24T13:36:37;2.10;;;1.10;;
81912;SDS011;71377;50.698;7.164;2023-07-24T13:39:04;3.78;;;1.08;;
81912;SDS011;71377;50.698;7.164;2023-07-24T13:41:30;4.25;;;1.85;;
81912;SDS011;71377;50.698;7.164;2023-07-24T13:43:57;5.47;;;1.38;;
81912;SDS011;71377;50.698;7.164;2023-07-24T13:46:24;3.60;;;1.30;;
81912;SDS011;71377;50.698;7.164;2023-07-24T13:48:50;2.10;;;1.25;;
81912;SDS011;71377;50.698;7.164;2023-07-24T13:51:16;1.35;;;1.20;;
81912;SDS011;71377;50.698;7.164;2023-07-24T13:53:43;2.53;;;1.17;;
81912;SDS011;71377;50.698;7.164;2023-07-24T13:56:12;2.70;;;1.05;;
81912;SDS011;71377;50.698;7.164;2023-07-24T13:58:40;2.28;;;1.15;;
81912;SDS011;71377;50.698;7.164;2023-07-24T14:01:06;3.17;;;1.30;;
81912;SDS011;71377;50.698;7.164;2023-07-24T14:03:33;2.17;;;0.93;;
81912;SDS011;71377;50.698;7.164;2023-07-24T14:06:00;1.13;;;0.93;;
81912;SDS011;71377;50.698;7.164;2023-07-24T14:08:26;3.08;;;0.90;;
81912;SDS011;71377;50.698;7.164;2023-07-24T14:10:53;2.25;;;1.02;;
81912;SDS011;71377;50.698;7.164;2023-07-24T14:13:20;1.20;;;0.80;;
81912;SDS011;71377;50.698;7.164;2023-07-24T14:15:46;3.30;;;1.10;;
81912;SDS011;71377;50.698;7.164;2023-07-24T14:18:13;1.00;;;0.90;;
81912;SDS011;71377;50.698;7.164;2023-07-24T14:20:40;8.75;;;1.40;;
81912;SDS011;71377;50.698;7.164;2023-07-24T14:23:07;1.73;;;1.10;;
81912;SDS011;71377;50.698;7.164;2023-07-24T14:25:36;2.80;;;0.85;;
81912;SDS011;71377;50.698;7.164;2023-07-24T14:28:03;1.25;;;0.80;;
81912;SDS011;71377;50.698;7.164;2023-07-24T14:30:29;4.93;;;0.90;;
81912;SDS011;71377;50.698;7.164;2023-07-24T14:32:56;1.58;;;0.80;;
81912;SDS011;71377;50.698;7.164;2023-07-24T14:35:22;1.88;;;0.90;;
81912;SDS011;71377;50.698;7.164;2023-07-24T14:37:49;0.88;;;0.60;;
81912;SDS011;71377;50.698;7.164;2023-07-24T14:40:15;0.82;;;0.63;;
81912;SDS011;71377;50.698;7.164;2023-07-24T14:42:41;1.02;;;0.80;;
81912;SDS011;71377;50.698;7.164;2023-07-24T14:45:08;1.52;;;0.80;;
81912;SDS011;71377;50.698;7.164;2023-07-24T14:47:35;3.10;;;1.00;;
81912;SDS011;71377;50.698;7.164;2023-07-24T14:50:01;1.08;;;0.90;;